Time;durP1;ratioP1;P1;durP2;ratioP2;P2;SDS_P1;SDS_P2;PMS_P1;PMS_P2;Temp;Humidity;BMP_temperature;BMP_pressure;BME280_temperature;BME280_humidity;BME280_pressure;Samples;Min_cycle;Max_cycle;Signal;HPM_P1;HPM_P2
2023/06/30 00:00:25;;;;;;;4.97;3.13;;;;;;;18.89;100.00;101374.66;2099683;28;20190;-69
2023/06/30 00:01:26;;;;;;;5.27;3.10;;;;;;;18.45;100.00;101308.94;2096670;28;20190;-69
2023/06/30 00:02:27;;;;;;;4.73;3.30;;;;;;;18.92;100.00;101375.75;2096647;28;20455;-69
2023/06/30 00:03:27;;;;;;;5.37;3.13;;;;;;;18.89;100.00;101379.50;2098489;28;20457;-69
2023/06/30 00:04:30;;;;;;;5.23;3.20;;;;;;;18.90;100.00;101381.06;2104126;28;20219;-69
2023/06/30 00:05:30;;;;;;;4.37;3.30;;;;;;;18.86;100.00;101378.44;2096986;28;20213;-69
2023/06/30 00:06:30;;;;;;;3.90;3.07;;;;;;;18.88;100.00;101378.72;2097168;28;20425;-69
2023/06/30 00:07:31;;;;;;;4.30;3.10;;;;;;;18.86;100.00;101372.81;2096710;28;20191;-69
2023/06/30 00:08:32;;;;;;;4.23;3.00;;;;;;;18.87;100.00;101371.56;2103012;28;20214;-69
2023/06/30 00:09:32;;;;;;;3.80;3.00;;;;;;;18.86;100.00;101374.81;2100093;28;20223;-69
2023/06/30 00:10:33;;;;;;;3.73;3.00;;;;;;;18.88;100.00;101370.31;2097028;28;20456;-69
2023/06/30 00:11:33;;;;;;;4.00;2.90;;;;;;;18.90;100.00;101378.25;2100383;28;20182;-69
2023/06/30 00:12:34;;;;;;;3.97;3.10;;;;;;;18.37;100.00;101293.66;2111103;28;20170;-69
2023/06/30 00:13:34;;;;;;;5.67;3.37;;;;;;;18.89;100.00;101379.50;2096450;28;20741;-69
2023/06/30 00:14:35;;;;;;;4.47;3.23;;;;;;;18.42;100.00;101307.06;2099771;28;20181;-69
2023/06/30 00:15:35;;;;;;;3.30;3.00;;;;;;;18.89;100.00;101383.09;2097793;28;20274;-69
2023/06/30 00:16:35;;;;;;;5.40;3.63;;;;;;;18.87;100.00;101385.59;2096948;28;20194;-69
2023/06/30 00:17:36;;;;;;;3.70;3.13;;;;;;;18.86;100.00;101384.03;2101675;28;20231;-69
2023/06/30 00:18:36;;;;;;;6.50;3.30;;;;;;;18.87;100.00;101394.03;2101453;28;20205;-69
2023/06/30 00:19:37;;;;;;;4.17;3.00;;;;;;;18.89;100.00;101385.91;2096481;28;20230;-69
2023/06/30 00:20:37;;;;;;;7.00;3.20;;;;;;;18.89;100.00;101385.91;2096456;28;20207;-69
2023/06/30 00:21:41;;;;;;;4.50;3.13;;;;;;;18.89;100.00;101385.13;2096238;28;20177;-69
2023/06/30 00:22:42;;;;;;;4.23;3.20;;;;;;;18.89;100.00;101380.28;2096991;28;20183;-69
2023/06/30 00:23:42;;;;;;;3.80;3.10;;;;;;;18.86;100.00;101378.44;2104231;28;21054;-69
2023/06/30 00:24:43;;;;;;;4.17;3.50;;;;;;;18.31;100.00;101303.16;2099017;28;20562;-69
2023/06/30 00:25:43;;;;;;;5.17;3.33;;;;;;;18.79;100.00;101369.56;2108737;28;20227;-69
2023/06/30 00:26:44;;;;;;;4.43;3.27;;;;;;;18.82;100.00;101380.63;2111188;28;20194;-69
2023/06/30 00:27:44;;;;;;;4.13;3.30;;;;;;;18.66;100.00;101357.69;2109808;28;20732;-69
2023/06/30 00:28:45;;;;;;;5.03;3.63;;;;;;;18.78;100.00;101371.56;2111778;28;20528;-69
2023/06/30 00:29:45;;;;;;;4.97;3.20;;;;;;;18.75;100.00;101378.13;2100078;28;20186;-69
2023/06/30 00:30:46;;;;;;;5.47;3.10;;;;;;;18.76;100.00;101384.50;2114979;28;20688;-69
2023/06/30 00:31:46;;;;;;;5.33;3.30;;;;;;;18.74;100.00;101375.78;2099352;28;20554;-69
2023/06/30 00:32:47;;;;;;;3.50;3.00;;;;;;;18.74;100.00;101381.41;2105071;28;20652;-69
2023/06/30 00:33:47;;;;;;;3.70;3.20;;;;;;;18.76;100.00;101382.50;2100260;28;20206;-69
2023/06/30 00:34:47;;;;;;;4.23;3.07;;;;;;;18.76;100.00;101382.50;2105252;28;20205;-69
2023/06/30 00:35:48;;;;;;;3.93;3.33;;;;;;;18.74;100.00;101382.19;2109702;28;20247;-69
2023/06/30 00:36:48;;;;;;;3.70;3.20;;;;;;;18.76;100.00;101381.72;2098432;28;20175;-69
2023/06/30 00:37:49;;;;;;;4.13;3.03;;;;;;;18.62;100.00;101371.13;2098938;28;20268;-69
2023/06/30 00:38:51;;;;;;;3.40;3.03;;;;;;;18.57;100.00;101383.00;2107161;28;20230;-69
2023/06/30 00:39:51;;;;;;;4.30;2.83;;;;;;;18.53;100.00;101382.38;2106704;28;20224;-69
2023/06/30 00:40:52;;;;;;;3.80;3.27;;;;;;;18.44;100.00;101377.53;2099583;28;20448;-69
2023/06/30 00:41:52;;;;;;;3.77;2.80;;;;;;;18.40;100.00;101374.09;2097797;28;20577;-69
2023/06/30 00:42:53;;;;;;;5.83;3.50;;;;;;;18.47;100.00;101379.41;2098476;28;20193;-69
2023/06/30 00:43:53;;;;;;;4.10;3.10;;;;;;;18.12;100.00;101324.03;2098231;28;20203;-69
2023/06/30 00:44:54;;;;;;;5.40;3.27;;;;;;;18.49;100.00;101376.13;2111382;28;20178;-69
2023/06/30 00:45:55;;;;;;;4.30;3.23;;;;;;;18.46;100.00;101374.25;2098864;28;20200;-69
2023/06/30 00:46:59;;;;;;;3.57;3.20;;;;;;;17.85;100.00;101279.94;2106938;28;20190;-69
2023/06/30 00:48:00;;;;;;;4.43;3.57;;;;;;;18.49;100.00;101373.31;2098636;28;20513;-69
2023/06/30 00:49:01;;;;;;;5.57;3.10;;;;;;;18.50;100.00;101372.84;2098548;28;20943;-69
2023/06/30 00:50:02;;;;;;;5.30;3.07;;;;;;;18.27;100.00;101332.16;2098329;28;20214;-69
2023/06/30 00:51:04;;;;;;;5.20;3.57;;;;;;;18.14;100.00;101300.66;2098070;28;20473;-69
2023/06/30 00:52:05;;;;;;;5.30;3.30;;;;;;;18.57;100.00;101369.72;2102341;28;20444;-69
2023/06/30 00:53:05;;;;;;;4.33;3.10;;;;;;;18.60;100.00;101365.19;2106471;28;20444;-69
2023/06/30 00:54:06;;;;;;;4.90;3.47;;;;;;;18.50;100.00;101358.03;2103633;28;20262;-69
2023/06/30 00:55:07;;;;;;;5.30;3.10;;;;;;;18.57;100.00;101366.91;2111245;28;20197;-69
2023/06/30 00:56:08;;;;;;;5.77;3.23;;;;;;;18.46;100.00;101366.63;2098570;28;20310;-68
2023/06/30 00:57:08;;;;;;;6.37;3.30;;;;;;;18.45;100.00;101365.06;2106218;28;20446;-68
2023/06/30 00:58:09;;;;;;;5.20;3.20;;;;;;;18.47;100.00;101356.19;2099876;28;20206;-68
2023/06/30 00:59:09;;;;;;;4.90;3.10;;;;;;;17.93;100.00;101272.78;2098325;28;20184;-68
2023/06/30 01:00:11;;;;;;;5.63;3.03;;;;;;;18.48;100.00;101355.69;2097578;28;20203;-68
2023/06/30 01:01:20;;;;;;;5.43;3.50;;;;;;;18.50;100.00;101370.06;2097538;28;20698;-68
2023/06/30 01:02:27;;;;;;;5.83;3.27;;;;;;;18.52;100.00;101355.56;2098052;28;20949;-69
2023/06/30 01:03:36;;;;;;;3.80;3.27;;;;;;;18.50;100.00;101358.03;2098066;28;20444;-69
2023/06/30 01:05:10;;;;;;;3.70;2.97;;;;;;;18.48;100.00;101363.34;2098056;28;20450;-69
2023/06/30 01:06:40;;;;;;;5.10;3.10;;;;;;;18.32;100.00;101349.59;2094047;28;20798;-69
2023/06/30 01:08:03;;;;;;;4.50;3.00;;;;;;;17.87;100.00;101268.25;2098477;28;20507;-69
2023/06/30 01:09:11;;;;;;;4.20;3.03;;;;;;;18.52;100.00;101363.97;2103160;28;20533;-69
2023/06/30 01:10:22;;;;;;;4.80;3.13;;;;;;;18.03;100.00;101288.38;2105480;28;20446;-69
2023/06/30 01:11:24;;;;;;;4.73;3.00;;;;;;;18.47;100.00;101364.59;2098149;28;20464;-69
2023/06/30 01:12:25;;;;;;;3.60;2.90;;;;;;;18.46;100.00;101355.38;2098979;28;20482;-69
2023/06/30 01:13:26;;;;;;;4.53;3.30;;;;;;;18.47;100.00;101347.75;2105855;28;20467;-69
2023/06/30 01:14:29;;;;;;;4.40;3.20;;;;;;;17.97;100.00;101276.19;2097587;28;20440;-69
2023/06/30 01:15:30;;;;;;;5.90;3.60;;;;;;;18.47;100.00;101356.94;2098056;28;20323;-69
2023/06/30 01:16:33;;;;;;;5.33;3.57;;;;;;;18.45;100.00;101362.25;2098053;28;20573;-69
2023/06/30 01:17:35;;;;;;;3.57;2.90;;;;;;;18.02;100.00;101286.03;2098357;28;20663;-69
2023/06/30 01:18:37;;;;;;;4.67;3.27;;;;;;;18.44;100.00;101355.09;2102720;28;20447;-69
2023/06/30 01:19:44;;;;;;;4.13;3.17;;;;;;;17.95;100.00;101295.50;2105779;28;20486;-69
2023/06/30 01:20:46;;;;;;;5.70;3.20;;;;;;;18.35;100.00;101354.28;2108156;28;20447;-69
2023/06/30 01:21:47;;;;;;;7.10;3.40;;;;;;;18.17;100.00;101326.22;2110057;28;20842;-69
2023/06/30 01:23:21;;;;;;;4.97;3.43;;;;;;;18.35;100.00;101349.47;2097660;28;20448;-69
2023/06/30 01:24:25;;;;;;;4.10;3.30;;;;;;;18.14;100.00;101333.56;2101866;28;20192;-69
2023/06/30 01:25:29;;;;;;;5.90;3.30;;;;;;;18.33;100.00;101363.22;2102514;28;20426;-69
2023/06/30 01:26:34;;;;;;;5.27;3.10;;;;;;;17.90;100.00;101287.72;2104331;28;21023;-69
2023/06/30 01:27:36;;;;;;;3.63;3.10;;;;;;;18.40;100.00;101365.69;2111011;28;20452;-69
2023/06/30 01:28:36;;;;;;;4.80;3.53;;;;;;;18.36;100.00;101361.47;2105332;28;20440;-69
2023/06/30 01:29:42;;;;;;;7.53;3.30;;;;;;;18.35;100.00;101357.91;2098233;28;20945;-69
2023/06/30 01:30:42;;;;;;;6.20;3.20;;;;;;;18.11;100.00;101326.06;2098402;28;20687;-69
2023/06/30 01:31:44;;;;;;;5.87;3.37;;;;;;;18.35;100.00;101354.28;2098542;28;20796;-69
2023/06/30 01:32:46;;;;;;;6.37;3.40;;;;;;;18.37;100.00;101357.44;2098157;28;20280;-69
2023/06/30 01:33:46;;;;;;;4.10;3.03;;;;;;;17.86;100.00;101284.28;2097531;28;20445;-69
2023/06/30 01:34:47;;;;;;;4.33;3.53;;;;;;;17.91;100.00;101294.13;2098048;28;20525;-69
2023/06/30 01:35:48;;;;;;;3.97;3.40;;;;;;;18.08;100.00;101312.97;2101950;28;20231;-69
2023/06/30 01:36:49;;;;;;;5.63;3.20;;;;;;;17.93;100.00;101290.38;2107832;28;20288;-69
2023/06/30 01:37:49;;;;;;;4.10;3.40;;;;;;;18.31;100.00;101353.66;2111571;28;20181;-69
2023/06/30 01:38:50;;;;;;;5.53;3.37;;;;;;;18.24;100.00;101352.72;2098197;28;20182;-69
2023/06/30 01:39:50;;;;;;;4.83;3.60;;;;;;;18.33;100.00;101356.81;2106751;28;20181;-69
2023/06/30 01:40:51;;;;;;;5.47;3.30;;;;;;;18.33;100.00;101354.78;2098534;28;20219;-69
2023/06/30 01:41:52;;;;;;;4.60;3.30;;;;;;;18.31;100.00;101351.63;2109821;28;20554;-69
2023/06/30 01:42:55;;;;;;;6.13;3.37;;;;;;;18.18;100.00;101325.75;2109021;28;20264;-69
2023/06/30 01:43:55;;;;;;;3.80;3.27;;;;;;;17.99;100.00;101296.16;2101375;28;20445;-69
2023/06/30 01:44:58;;;;;;;6.83;3.63;;;;;;;18.00;100.00;101308.91;2100445;28;21020;-69
2023/06/30 01:45:59;;;;;;;4.77;3.70;;;;;;;18.34;100.00;101347.13;2105670;28;20175;-69
2023/06/30 01:47:00;;;;;;;5.77;3.57;;;;;;;18.34;100.00;101358.34;2097648;28;20469;-69
2023/06/30 01:48:01;;;;;;;5.10;3.43;;;;;;;18.19;100.00;101339.28;2097935;28;20171;-69
2023/06/30 01:49:02;;;;;;;6.17;3.40;;;;;;;18.18;100.00;101340.56;2098531;28;20417;-69
2023/06/30 01:50:03;;;;;;;4.63;3.47;;;;;;;17.92;100.00;101284.47;2097565;28;20802;-69
2023/06/30 01:51:05;;;;;;;4.67;3.17;;;;;;;18.34;100.00;101352.75;2103964;28;20447;-69
2023/06/30 01:52:06;;;;;;;16.13;3.77;;;;;;;18.35;100.00;101351.50;2100389;28;20448;-69
2023/06/30 01:53:06;;;;;;;4.53;3.83;;;;;;;18.34;100.00;101347.13;2102083;28;20526;-69
2023/06/30 01:54:07;;;;;;;6.87;4.20;;;;;;;18.30;100.00;101347.25;2105769;28;20186;-69
2023/06/30 01:55:08;;;;;;;7.40;3.50;;;;;;;17.96;100.00;101294.25;2107803;28;20258;-69
2023/06/30 01:56:08;;;;;;;5.63;3.50;;;;;;;17.88;100.00;101282.56;2112804;28;20280;-69
2023/06/30 01:57:08;;;;;;;7.70;4.00;;;;;;;18.24;100.00;101349.91;2098156;28;20210;-69
2023/06/30 01:58:09;;;;;;;5.20;3.87;;;;;;;18.26;100.00;101354.28;2098101;28;20746;-69
2023/06/30 01:59:09;;;;;;;5.23;3.83;;;;;;;18.28;100.00;101350.53;2098070;28;20273;-69
2023/06/30 02:00:10;;;;;;;5.80;3.53;;;;;;;18.32;100.00;101350.41;2097629;28;20183;-69
2023/06/30 02:01:11;;;;;;;4.80;3.70;;;;;;;18.08;100.00;101322.16;2097498;28;20199;-69
2023/06/30 02:02:11;;;;;;;6.13;3.93;;;;;;;18.29;100.00;101349.28;2097193;28;20437;-69
2023/06/30 02:03:12;;;;;;;5.70;4.00;;;;;;;18.32;100.00;101341.97;2099182;28;20177;-69
2023/06/30 02:04:12;;;;;;;5.77;3.63;;;;;;;18.32;100.00;101350.41;2104477;28;20192;-69
2023/06/30 02:05:13;;;;;;;6.37;4.03;;;;;;;18.32;100.00;101344.78;2098235;28;20183;-69
2023/06/30 02:06:13;;;;;;;5.57;4.17;;;;;;;18.32;100.00;101344.00;2096221;28;20214;-69
2023/06/30 02:07:14;;;;;;;8.20;3.57;;;;;;;18.29;100.00;101346.47;2104101;28;20194;-69
2023/06/30 02:08:14;;;;;;;5.77;3.90;;;;;;;18.31;100.00;101346.00;2103240;28;20664;-69
2023/06/30 02:09:15;;;;;;;7.30;3.67;;;;;;;18.30;100.00;101352.88;2101510;28;20219;-69
2023/06/30 02:10:15;;;;;;;6.23;3.60;;;;;;;17.27;100.00;101187.50;2100798;28;20191;-69
2023/06/30 02:11:15;;;;;;;5.40;3.70;;;;;;;18.27;100.00;101340.56;2105602;28;20282;-69
2023/06/30 02:12:16;;;;;;;10.47;4.03;;;;;;;18.31;100.00;101346.00;2109759;28;20229;-68
2023/06/30 02:13:16;;;;;;;6.80;3.67;;;;;;;18.26;100.00;101338.22;2106588;28;20262;-68
2023/06/30 02:14:17;;;;;;;7.37;3.67;;;;;;;18.09;100.00;101315.28;2105145;28;20198;-68
2023/06/30 02:15:17;;;;;;;5.27;3.53;;;;;;;18.31;100.00;101353.66;2105751;28;20187;-68
2023/06/30 02:16:17;;;;;;;7.20;4.00;;;;;;;18.31;100.00;101342.44;2105916;28;20183;-68
2023/06/30 02:17:26;;;;;;;5.30;3.90;;;;;;;18.23;100.00;101338.38;2101785;28;20188;-68
2023/06/30 02:18:27;;;;;;;5.90;3.83;;;;;;;18.28;100.00;101353.34;2097643;28;20237;-68
2023/06/30 02:19:28;;;;;;;5.97;3.67;;;;;;;18.28;100.00;101349.78;2101105;28;20581;-68
2023/06/30 02:20:29;;;;;;;5.93;3.93;;;;;;;18.27;100.00;101348.97;2103520;28;20186;-68
2023/06/30 02:21:29;;;;;;;6.37;3.90;;;;;;;18.26;100.00;101351.47;2110968;28;20416;-68
2023/06/30 02:22:30;;;;;;;5.83;3.47;;;;;;;18.26;100.00;101351.47;2097849;28;20198;-68
2023/06/30 02:23:30;;;;;;;4.70;3.70;;;;;;;17.91;100.00;101300.50;2097256;28;20172;-68
2023/06/30 02:24:30;;;;;;;6.03;3.80;;;;;;;18.23;100.00;101356.00;2097875;28;20269;-68
2023/06/30 02:25:31;;;;;;;6.57;3.77;;;;;;;18.24;100.00;101354.75;2103586;28;20274;-68
2023/06/30 02:26:31;;;;;;;4.97;3.60;;;;;;;18.23;100.00;101356.75;2100969;28;20195;-69
2023/06/30 02:27:32;;;;;;;7.53;3.80;;;;;;;18.16;100.00;101349.91;2101757;28;20214;-69
2023/06/30 02:28:32;;;;;;;3.67;3.17;;;;;;;18.20;100.00;101348.50;2099424;28;20191;-69
2023/06/30 02:29:32;;;;;;;4.50;3.47;;;;;;;18.14;100.00;101350.38;2099438;28;20225;-69
2023/06/30 02:30:33;;;;;;;4.90;3.77;;;;;;;18.12;100.00;101350.06;2114987;28;20251;-69
2023/06/30 02:31:34;;;;;;;6.47;3.67;;;;;;;18.12;100.00;101352.09;2105934;28;20183;-69
2023/06/30 02:32:37;;;;;;;8.77;4.23;;;;;;;18.09;100.00;101351.00;2098764;28;20243;-69
2023/06/30 02:33:38;;;;;;;8.53;4.37;;;;;;;18.08;100.00;101349.44;2102902;28;20432;-69
2023/06/30 02:34:39;;;;;;;12.93;4.30;;;;;;;17.87;100.00;101324.31;2104340;28;20468;-69
2023/06/30 02:35:39;;;;;;;15.10;4.60;;;;;;;18.02;100.00;101352.06;2101664;28;20238;-69
2023/06/30 02:36:40;;;;;;;18.63;4.60;;;;;;;18.02;100.00;101354.88;2102536;28;20605;-69
2023/06/30 02:37:40;;;;;;;13.23;4.70;;;;;;;18.03;100.00;101355.69;2097708;28;20665;-69
2023/06/30 02:38:40;;;;;;;8.03;3.90;;;;;;;18.01;100.00;101348.97;2098025;28;20551;-69
2023/06/30 02:39:41;;;;;;;9.60;4.50;;;;;;;17.99;100.00;101350.19;2108135;28;20169;-69
2023/06/30 02:40:41;;;;;;;10.13;4.40;;;;;;;17.66;100.00;101316.81;2098551;28;20188;-69
2023/06/30 02:41:42;;;;;;;11.37;4.43;;;;;;;17.98;100.00;101359.84;2103545;28;20187;-69
2023/06/30 02:42:42;;;;;;;9.13;3.97;;;;;;;17.26;100.00;101249.63;2100465;28;20241;-69
2023/06/30 02:43:43;;;;;;;9.53;4.20;;;;;;;18.00;100.00;101353.78;2101039;28;20195;-69
2023/06/30 02:44:43;;;;;;;9.60;4.00;;;;;;;18.01;100.00;101348.97;2102490;28;20699;-69
2023/06/30 02:45:44;;;;;;;9.87;5.03;;;;;;;17.96;100.00;101336.31;2098927;28;20204;-69
2023/06/30 02:46:45;;;;;;;8.80;4.10;;;;;;;17.90;100.00;101337.44;2104825;28;20171;-69
2023/06/30 02:47:45;;;;;;;11.17;3.73;;;;;;;18.01;100.00;101351.78;2097485;28;20185;-69
2023/06/30 02:48:46;;;;;;;5.97;3.60;;;;;;;18.01;100.00;101346.94;2105187;28;20687;-69
2023/06/30 02:49:46;;;;;;;7.10;3.90;;;;;;;18.02;100.00;101356.13;2098933;28;20682;-69
2023/06/30 02:50:47;;;;;;;8.10;4.00;;;;;;;18.00;100.00;101356.59;2097255;28;20223;-69
2023/06/30 02:51:47;;;;;;;6.60;3.80;;;;;;;17.88;100.00;101335.09;2097293;28;20203;-69
2023/06/30 02:52:47;;;;;;;5.67;3.70;;;;;;;18.03;100.00;101359.25;2097483;28;20183;-69
2023/06/30 02:53:48;;;;;;;8.00;3.47;;;;;;;18.04;100.00;101352.38;2102313;28;20677;-69
2023/06/30 02:54:49;;;;;;;6.07;4.10;;;;;;;18.06;100.00;101357.53;2097545;28;20652;-69
2023/06/30 02:55:49;;;;;;;7.50;3.93;;;;;;;18.04;100.00;101357.22;2106203;28;20319;-69
2023/06/30 02:56:49;;;;;;;6.53;3.77;;;;;;;17.99;100.00;101346.63;2105583;28;20199;-69
2023/06/30 02:57:50;;;;;;;5.93;3.90;;;;;;;18.03;100.00;101358.47;2105920;28;20261;-69
2023/06/30 02:58:50;;;;;;;5.53;4.00;;;;;;;17.72;100.00;101318.56;2110865;28;20205;-69
2023/06/30 02:59:51;;;;;;;5.63;4.00;;;;;;;17.86;100.00;101329.16;2109470;28;20538;-69
2023/06/30 03:00:51;;;;;;;5.60;3.50;;;;;;;17.99;100.00;101352.22;2101900;28;20190;-69
2023/06/30 03:01:52;;;;;;;6.47;3.97;;;;;;;17.85;100.00;101335.25;2096809;28;20236;-69
2023/06/30 03:02:52;;;;;;;5.47;3.70;;;;;;;17.92;100.00;101347.69;2097000;28;20250;-69
2023/06/30 03:03:52;;;;;;;6.00;4.07;;;;;;;17.92;100.00;101348.94;2097350;28;20725;-69
2023/06/30 03:04:55;;;;;;;18.63;3.77;;;;;;;17.90;100.00;101348.66;2097367;28;20724;-69
2023/06/30 03:05:56;;;;;;;6.07;3.77;;;;;;;17.89;100.00;101339.44;2097716;28;20541;-69
2023/06/30 03:06:56;;;;;;;8.10;4.00;;;;;;;17.89;100.00;101350.66;2097032;28;20498;-69
2023/06/30 03:07:56;;;;;;;7.03;3.80;;;;;;;17.50;100.00;101283.47;2096773;28;20209;-69
2023/06/30 03:08:57;;;;;;;5.93;3.80;;;;;;;17.79;100.00;101335.06;2097008;28;20194;-69
2023/06/30 03:09:57;;;;;;;12.70;4.47;;;;;;;17.90;100.00;101351.44;2097422;28;20175;-69
2023/06/30 03:10:58;;;;;;;7.67;4.10;;;;;;;17.90;100.00;101352.22;2096373;28;20210;-69
2023/06/30 03:11:58;;;;;;;8.77;4.43;;;;;;;17.88;100.00;101354.72;2096819;28;20175;-69
2023/06/30 03:12:58;;;;;;;10.20;3.50;;;;;;;16.80;100.00;101180.72;2097823;28;20559;-69
2023/06/30 03:13:59;;;;;;;10.33;3.90;;;;;;;17.32;100.00;101272.97;2096609;28;20565;-69
2023/06/30 03:14:59;;;;;;;9.33;4.43;;;;;;;17.80;100.00;101341.47;2103459;28;20183;-69
2023/06/30 03:16:00;;;;;;;10.40;4.27;;;;;;;17.74;100.00;101346.91;2100258;28;20302;-69
2023/06/30 03:17:01;;;;;;;7.63;3.80;;;;;;;17.70;100.00;101348.28;2097882;28;20565;-69
2023/06/30 03:18:02;;;;;;;9.20;4.13;;;;;;;17.71;100.00;101344.25;2113040;28;20569;-69
2023/06/30 03:19:02;;;;;;;10.50;4.77;;;;;;;17.22;100.00;101263.75;2111309;28;20545;-69
2023/06/30 03:20:12;;;;;;;7.87;4.37;;;;;;;17.75;100.00;101351.25;2097244;28;20176;-69
2023/06/30 03:21:12;;;;;;;7.87;4.40;;;;;;;17.37;100.00;101291.97;2104108;28;20256;-69
2023/06/30 03:22:12;;;;;;;7.17;4.30;;;;;;;17.73;100.00;101345.34;2105017;28;20470;-69
2023/06/30 03:23:14;;;;;;;7.80;4.03;;;;;;;17.67;100.00;101336.75;2104958;28;20187;-69
2023/06/30 03:24:14;;;;;;;9.73;3.47;;;;;;;17.66;100.00;101323.19;2105156;28;20197;-69
2023/06/30 03:25:15;;;;;;;7.93;4.03;;;;;;;17.77;100.00;101351.59;2109868;28;20447;-69
2023/06/30 03:26:15;;;;;;;6.03;3.90;;;;;;;17.77;100.00;101341.13;2104728;28;20188;-69
2023/06/30 03:27:15;;;;;;;6.67;4.00;;;;;;;17.74;100.00;101346.91;2104483;28;20608;-69
2023/06/30 03:28:16;;;;;;;6.43;4.10;;;;;;;17.77;100.00;101343.16;2104523;28;20698;-69
2023/06/30 03:29:16;;;;;;;8.90;4.47;;;;;;;17.80;100.00;101345.03;2104927;28;20186;-69
2023/06/30 03:30:17;;;;;;;6.27;4.10;;;;;;;17.82;100.00;101348.16;2097383;28;20172;-69
2023/06/30 03:31:18;;;;;;;6.80;4.53;;;;;;;17.80;100.00;101345.03;2096893;28;20219;-69
2023/06/30 03:32:19;;;;;;;10.67;4.80;;;;;;;17.79;100.00;101340.66;2103844;28;20214;-69
2023/06/30 03:33:21;;;;;;;11.13;4.63;;;;;;;17.79;100.00;101346.28;2099710;28;20475;-69
2023/06/30 03:34:21;;;;;;;8.73;4.30;;;;;;;17.81;100.00;101345.81;2101311;28;20191;-69
2023/06/30 03:35:22;;;;;;;9.03;4.50;;;;;;;17.50;100.00;101301.03;2101929;28;20483;-69
2023/06/30 03:36:22;;;;;;;9.80;4.10;;;;;;;17.72;100.00;101329.78;2096973;28;20669;-69
2023/06/30 03:37:23;;;;;;;5.97;4.30;;;;;;;17.88;100.00;101352.69;2107750;28;20182;-69
2023/06/30 03:38:23;;;;;;;6.03;3.87;;;;;;;17.87;100.00;101353.16;2105147;28;20206;-69
2023/06/30 03:39:24;;;;;;;7.47;4.37;;;;;;;17.89;100.00;101350.66;2097665;28;20651;-69
2023/06/30 03:40:24;;;;;;;6.50;3.80;;;;;;;17.91;100.00;101353.00;2103743;28;20182;-69
2023/06/30 03:41:26;;;;;;;5.20;3.93;;;;;;;17.77;100.00;101335.53;2109694;28;20272;-69
2023/06/30 03:42:27;;;;;;;4.63;3.80;;;;;;;17.94;100.00;101356.41;2103351;28;20331;-69
2023/06/30 03:43:27;;;;;;;6.13;3.97;;;;;;;17.41;100.00;101272.22;2096310;28;20448;-69
2023/06/30 03:44:27;;;;;;;5.57;3.90;;;;;;;17.93;100.00;101352.06;2097018;28;20285;-69
2023/06/30 03:45:28;;;;;;;10.00;4.60;;;;;;;17.96;100.00;101350.34;2096959;28;20176;-69
2023/06/30 03:46:29;;;;;;;11.77;4.70;;;;;;;17.80;100.00;101324.66;2096312;28;20177;-69
2023/06/30 03:47:29;;;;;;;15.60;4.97;;;;;;;17.92;100.00;101347.69;2097349;28;20218;-69
2023/06/30 03:48:30;;;;;;;7.97;4.20;;;;;;;17.96;100.00;101352.38;2097215;28;20194;-69
2023/06/30 03:49:30;;;;;;;13.43;4.30;;;;;;;17.93;100.00;101337.28;2097046;28;20198;-69
2023/06/30 03:50:30;;;;;;;8.07;4.60;;;;;;;17.45;100.00;101268.03;2097313;28;20643;-69
2023/06/30 03:51:31;;;;;;;13.40;5.50;;;;;;;18.01;100.00;101352.53;2100345;28;20574;-69
2023/06/30 03:52:31;;;;;;;13.13;4.27;;;;;;;18.04;100.00;101346.00;2102752;28;20199;-68
2023/06/30 03:53:32;;;;;;;8.37;4.40;;;;;;;18.01;100.00;101335.72;2096343;28;20173;-68
2023/06/30 03:54:32;;;;;;;9.40;4.27;;;;;;;18.02;100.00;101346.47;2096790;28;20170;-68
2023/06/30 03:55:32;;;;;;;9.00;4.37;;;;;;;17.77;100.00;101293.47;2097400;28;20175;-68
2023/06/30 03:56:33;;;;;;;10.67;4.60;;;;;;;17.88;100.00;101306.25;2097194;28;20619;-68
2023/06/30 03:57:33;;;;;;;6.57;3.93;;;;;;;17.65;100.00;101273.22;2096582;28;20265;-68
2023/06/30 03:58:34;;;;;;;7.43;4.20;;;;;;;18.18;100.00;101348.97;2102049;28;20195;-68
2023/06/30 03:59:34;;;;;;;7.23;3.83;;;;;;;18.18;100.00;101348.97;2104561;28;20269;-68
2023/06/30 04:00:34;;;;;;;4.80;3.70;;;;;;;18.14;100.00;101337.13;2106859;28;20536;-68
2023/06/30 04:01:35;;;;;;;7.33;3.60;;;;;;;18.18;100.00;101339.78;2109585;28;20177;-68
2023/06/30 04:02:36;;;;;;;7.67;4.10;;;;;;;18.23;100.00;101342.75;2097119;28;20641;-68
2023/06/30 04:03:36;;;;;;;4.93;3.60;;;;;;;18.26;100.00;101343.81;2105123;28;20258;-68
2023/06/30 04:04:37;;;;;;;5.67;3.77;;;;;;;18.22;100.00;101345.25;2097735;28;20245;-68
2023/06/30 04:05:37;;;;;;;9.40;4.10;;;;;;;18.17;100.00;101343.81;2096939;28;20193;-68
2023/06/30 04:06:37;;;;;;;7.17;4.37;;;;;;;17.67;100.00;101279.13;2102430;28;20203;-68
2023/06/30 04:07:38;;;;;;;7.93;3.90;;;;;;;18.28;100.00;101355.38;2105033;28;20190;-68
2023/06/30 04:08:38;;;;;;;5.53;3.50;;;;;;;18.31;100.00;101354.44;2104018;28;20193;-68
2023/06/30 04:09:39;;;;;;;4.50;3.90;;;;;;;18.36;100.00;101353.84;2103229;28;20184;-68
2023/06/30 04:10:39;;;;;;;5.07;3.87;;;;;;;18.33;100.00;101340.75;2096651;28;20167;-69
2023/06/30 04:11:39;;;;;;;7.63;4.03;;;;;;;18.45;100.00;101345.41;2097168;28;20174;-69
2023/06/30 04:12:41;;;;;;;7.50;4.30;;;;;;;17.91;100.00;101269.66;2104707;28;20213;-69
2023/06/30 04:13:42;;;;;;;6.17;3.80;;;;;;;18.08;100.00;101278.53;2097976;28;20596;-69
2023/06/30 04:14:43;;;;;;;4.80;3.30;;;;;;;18.54;100.00;101344.63;2099755;28;20497;-69
2023/06/30 04:15:43;;;;;;;5.17;3.83;;;;;;;18.58;100.00;101348.06;2105138;28;20202;-69
2023/06/30 04:16:44;;;;;;;7.03;4.10;;;;;;;18.51;100.00;101323.88;2105316;28;20717;-69
2023/06/30 04:17:44;;;;;;;4.97;4.10;;;;;;;18.65;100.00;101340.09;2104613;28;20214;-69
2023/06/30 04:18:44;;;;;;;5.73;4.20;;;;;;;18.67;100.00;101340.38;2103768;28;20636;-69
2023/06/30 04:19:45;;;;;;;7.03;4.10;;;;;;;18.72;100.00;101339.75;2096343;28;20621;-69
2023/06/30 04:20:47;;;;;;;7.13;3.90;;;;;;;18.65;100.00;101342.91;2096546;28;20623;-69
2023/06/30 04:21:49;;;;;;;7.80;4.07;;;;;;;18.66;100.00;101341.66;2103030;28;20287;-69
2023/06/30 04:22:50;;;;;;;6.83;3.70;;;;;;;18.71;100.00;101341.00;2104097;28;20440;-69
2023/06/30 04:23:50;;;;;;;6.13;3.60;;;;;;;18.77;100.00;101352.41;2099771;28;20446;-69
2023/06/30 04:24:51;;;;;;;5.87;3.50;;;;;;;18.67;100.00;101323.53;2096795;28;20448;-69
2023/06/30 04:25:51;;;;;;;5.87;3.80;;;;;;;18.88;100.00;101358.31;2097074;28;20210;-69
2023/06/30 04:26:52;;;;;;;5.37;3.67;;;;;;;18.93;100.00;101349.25;2096573;28;20176;-69
2023/06/30 04:27:52;;;;;;;5.97;3.60;;;;;;;18.93;100.00;101352.06;2096673;28;20185;-69
2023/06/30 04:28:52;;;;;;;5.80;3.60;;;;;;;18.79;100.00;101319.00;2096653;28;20728;-69
2023/06/30 04:29:53;;;;;;;4.90;3.47;;;;;;;19.00;100.00;101346.09;2096831;28;20284;-69
2023/06/30 04:30:53;;;;;;;3.87;3.47;;;;;;;19.03;100.00;101350.78;2096480;28;20187;-68
2023/06/30 04:31:54;;;;;;;5.03;3.50;;;;;;;18.65;100.00;101291.56;2096832;28;20244;-68
2023/06/30 04:32:54;;;;;;;7.00;3.93;;;;;;;18.79;100.00;101299.34;2096642;28;20215;-68
2023/06/30 04:33:54;;;;;;;5.70;3.53;;;;;;;19.17;100.00;101353.69;2096021;28;20198;-68
2023/06/30 04:34:57;;;;;;;4.67;3.80;;;;;;;19.21;100.00;101354.31;2097737;28;20179;-68
2023/06/30 04:35:58;;;;;;;7.03;3.60;;;;;;;19.16;100.00;101351.34;2100166;28;20205;-68
2023/06/30 04:36:58;;;;;;;4.97;4.00;;;;;;;19.04;100.00;101357.94;2110656;28;20424;-68
2023/06/30 04:37:59;;;;;;;4.73;3.60;;;;;;;19.08;100.00;101359.31;2102000;28;20691;-68
2023/06/30 04:38:59;;;;;;;4.90;3.80;;;;;;;19.18;100.00;101354.47;2101883;28;20900;-68
2023/06/30 04:40:00;;;;;;;8.90;4.10;;;;;;;18.82;100.00;101299.19;2109008;28;20311;-68
2023/06/30 04:41:01;;;;;;;8.30;4.00;;;;;;;19.12;100.00;101368.38;2104699;28;20187;-68
2023/06/30 04:42:01;;;;;;;7.67;4.20;;;;;;;18.87;100.00;101304.16;2103473;28;20956;-68